Terminal Aerodrome Forecast
Issued by NWS

Home | Current Version | Previous Version | Text Only | Print | Product List | Glossary Off
Versions: 1 2 3 4 5 6 7 8 9 10 11 12 13 14 15 16

675
FTUS41 KCLE 230540
TAFFDY
TAF
KFDY 230540Z 2306/2406 VRB03KT P6SM SCT100 OVC250
     FM231500 32005KT P6SM BKN100 OVC250
     FM231900 36007KT P6SM SCT050 OVC100
     FM240000 04010KT P6SM BKN050=

USA.gov is the U.S. government's official web portal to all federal, state and local government web resources and services.